Time;durP1;ratioP1;P1;durP2;ratioP2;P2;SDS_P1;SDS_P2;PMS_P1;PMS_P2;Temp;Humidity;BMP_temperature;BMP_pressure;BME280_temperature;BME280_humidity;BME280_pressure;Samples;Min_cycle;Max_cycle;Signal;HPM_P1;HPM_P2
2023/09/17 00:01:11;;;;;;;21.23;17.10;;;15.50;1.00;;;;;;4997320;28;20223;-50
2023/09/17 00:03:37;;;;;;;21.20;18.20;;;15.50;99.90;;;;;;4997851;28;20189;-50
2023/09/17 00:06:03;;;;;;;20.10;16.73;;;15.50;1.00;;;;;;4997272;28;20451;-50
2023/09/17 00:08:29;;;;;;;20.03;17.60;;;15.40;99.90;;;;;;4999891;28;21007;-51
2023/09/17 00:10:55;;;;;;;18.30;15.93;;;15.30;1.00;;;;;;4997428;28;20189;-51
2023/09/17 00:13:21;;;;;;;18.90;17.00;;;15.20;1.00;;;;;;5004070;28;20440;-50
2023/09/17 00:15:46;;;;;;;24.13;17.97;;;15.20;99.90;;;;;;5008945;28;20220;-49
2023/09/17 00:18:12;;;;;;;20.50;17.40;;;15.10;99.90;;;;;;5004306;28;20599;-50
2023/09/17 00:20:38;;;;;;;19.93;17.90;;;15.10;1.00;;;;;;5003538;28;20221;-48
2023/09/17 00:23:04;;;;;;;19.67;17.40;;;15.10;99.90;;;;;;5007893;28;20511;-50
2023/09/17 00:25:29;;;;;;;21.27;19.00;;;15.10;99.90;;;;;;5009721;28;20185;-51
2023/09/17 00:27:55;;;;;;;21.00;18.00;;;15.10;1.00;;;;;;5006808;28;20289;-49
2023/09/17 00:30:21;;;;;;;22.67;19.90;;;15.00;99.90;;;;;;5003062;28;20228;-50
2023/09/17 00:32:47;;;;;;;26.30;19.80;;;15.10;99.90;;;;;;5006838;28;20185;-48
2023/09/17 00:35:13;;;;;;;23.97;18.77;;;15.10;99.90;;;;;;4999599;28;20489;-49
2023/09/17 00:37:38;;;;;;;25.03;19.40;;;15.00;99.90;;;;;;5005638;28;20636;-50
2023/09/17 00:40:11;;;;;;;22.00;18.97;;;15.00;99.90;;;;;;5003801;28;20687;-50
2023/09/17 00:42:37;;;;;;;21.40;19.10;;;14.90;99.90;;;;;;5005211;28;20626;-51
2023/09/17 00:45:04;;;;;;;24.67;20.30;;;14.90;1.00;;;;;;5005620;28;20457;-50
2023/09/17 00:47:30;;;;;;;23.90;20.00;;;14.90;1.00;;;;;;5000655;28;20492;-49
2023/09/17 00:49:57;;;;;;;22.70;19.67;;;14.90;1.00;;;;;;5003919;28;20477;-50
2023/09/17 00:52:22;;;;;;;23.37;20.40;;;14.80;1.00;;;;;;5002671;28;20467;-49
2023/09/17 00:54:50;;;;;;;24.00;20.17;;;14.80;1.00;;;;;;5004396;28;20471;-50
2023/09/17 00:57:16;;;;;;;24.17;21.07;;;14.70;4.70;;;;;;5000874;28;20226;-50
2023/09/17 00:59:45;;;;;;;23.80;20.57;;;14.70;9.80;;;;;;5004871;28;20470;-50
2023/09/17 01:02:20;;;;;;;24.50;21.70;;;14.70;21.20;;;;;;5002784;28;20192;-50
2023/09/17 01:04:49;;;;;;;24.20;21.70;;;14.70;55.80;;;;;;5003012;28;20772;-49
2023/09/17 01:07:16;;;;;;;24.13;21.23;;;14.70;99.90;;;;;;5005039;28;20950;-50
2023/09/17 01:09:43;;;;;;;26.00;20.00;;;14.70;99.90;;;;;;5002965;28;20524;-49
2023/09/17 01:12:09;;;;;;;24.07;21.47;;;14.60;99.90;;;;;;5005641;28;20471;-49
2023/09/17 01:14:36;;;;;;;23.87;20.03;;;14.60;99.90;;;;;;5006752;28;20462;-48
2023/09/17 01:17:03;;;;;;;24.23;20.30;;;14.60;99.90;;;;;;5002051;28;20526;-49
2023/09/17 01:19:29;;;;;;;26.77;21.50;;;14.60;99.90;;;;;;5003073;28;20439;-50
2023/09/17 01:22:06;;;;;;;23.67;19.80;;;14.50;99.90;;;;;;5000792;28;20522;-48
2023/09/17 01:24:43;;;;;;;25.20;21.37;;;14.50;99.90;;;;;;5007419;28;20947;-51
2023/09/17 01:27:11;;;;;;;23.27;20.77;;;14.40;99.90;;;;;;5001715;28;20781;-49
2023/09/17 01:29:39;;;;;;;23.47;20.97;;;14.40;99.90;;;;;;5005230;28;20443;-49
2023/09/17 01:32:05;;;;;;;22.90;20.43;;;14.40;99.90;;;;;;5007409;28;20442;-49
2023/09/17 01:34:34;;;;;;;27.03;21.00;;;14.40;99.90;;;;;;4998370;28;20441;-49
2023/09/17 01:37:02;;;;;;;25.57;21.00;;;14.40;99.90;;;;;;5002789;28;20489;-49
2023/09/17 01:39:33;;;;;;;23.10;19.70;;;14.40;99.90;;;;;;5003023;28;20444;-49
2023/09/17 01:42:02;;;;;;;25.60;21.07;;;14.40;99.90;;;;;;5002234;28;20439;-49
2023/09/17 01:44:29;;;;;;;24.67;20.53;;;14.40;99.90;;;;;;4999775;28;20431;-50
2023/09/17 01:46:56;;;;;;;23.00;20.60;;;14.30;99.90;;;;;;5003309;28;20443;-49
2023/09/17 01:49:23;;;;;;;24.83;20.07;;;14.30;99.90;;;;;;5005255;28;20450;-48
2023/09/17 01:51:49;;;;;;;22.40;19.30;;;14.30;99.90;;;;;;5003566;28;20446;-50
2023/09/17 01:54:15;;;;;;;23.17;20.67;;;14.30;99.90;;;;;;5000466;28;20443;-49
2023/09/17 01:56:41;;;;;;;23.13;19.87;;;14.20;99.90;;;;;;4998642;28;20857;-50
2023/09/17 01:59:07;;;;;;;23.47;20.87;;;14.20;99.90;;;;;;5001718;28;20466;-49
2023/09/17 02:01:33;;;;;;;22.00;18.43;;;14.10;99.90;;;;;;4998637;28;20431;-50
2023/09/17 02:03:58;;;;;;;25.10;21.10;;;14.10;99.90;;;;;;4998627;28;20259;-50
2023/09/17 02:06:24;;;;;;;25.20;21.83;;;14.00;99.90;;;;;;4999543;28;20556;-49
2023/09/17 02:08:49;;;;;;;24.57;21.87;;;14.00;99.90;;;;;;5002751;28;20355;-51
2023/09/17 02:11:15;;;;;;;22.67;20.30;;;14.00;99.90;;;;;;5010143;28;20196;-49
2023/09/17 02:13:40;;;;;;;24.73;20.50;;;14.00;99.90;;;;;;4997459;28;20203;-49
2023/09/17 02:16:07;;;;;;;23.13;20.57;;;14.00;99.90;;;;;;5003169;28;20214;-48
2023/09/17 02:18:33;;;;;;;25.50;20.67;;;14.00;99.90;;;;;;4998520;28;20263;-49
2023/09/17 02:20:58;;;;;;;23.17;19.40;;;13.90;99.90;;;;;;5000886;28;20442;-49
2023/09/17 02:23:25;;;;;;;26.43;20.93;;;13.90;99.90;;;;;;5005536;28;20318;-49
2023/09/17 02:25:51;;;;;;;22.00;19.60;;;13.90;99.90;;;;;;5000799;28;20250;-49
2023/09/17 02:28:16;;;;;;;24.33;20.50;;;14.00;99.90;;;;;;4999668;28;20951;-49
2023/09/17 02:30:42;;;;;;;22.37;19.97;;;13.90;99.90;;;;;;5001212;28;20574;-48
2023/09/17 02:33:10;;;;;;;25.07;22.37;;;13.90;99.90;;;;;;5003105;28;20207;-49
2023/09/17 02:35:36;;;;;;;26.60;21.50;;;13.90;99.90;;;;;;4999460;28;20280;-49
2023/09/17 02:38:03;;;;;;;21.97;19.00;;;13.80;99.90;;;;;;5002658;28;20578;-48
2023/09/17 02:40:29;;;;;;;21.80;19.50;;;13.80;99.90;;;;;;5002259;28;20455;-48
2023/09/17 02:42:54;;;;;;;24.33;19.93;;;13.80;99.90;;;;;;5000018;28;20516;-49
2023/09/17 02:45:20;;;;;;;23.60;21.10;;;13.70;99.90;;;;;;5005011;28;20187;-49
2023/09/17 02:47:46;;;;;;;24.30;20.80;;;13.70;99.90;;;;;;4999630;28;20633;-49
2023/09/17 02:50:12;;;;;;;27.03;22.13;;;13.70;99.90;;;;;;4998961;28;20188;-50
2023/09/17 02:52:38;;;;;;;24.87;21.13;;;13.70;99.90;;;;;;5002338;28;20987;-49
2023/09/17 02:55:05;;;;;;;24.10;21.43;;;13.60;99.90;;;;;;5001284;28;20214;-49
2023/09/17 02:57:31;;;;;;;28.10;22.83;;;13.60;99.90;;;;;;4998264;28;20447;-50
2023/09/17 02:59:56;;;;;;;27.43;22.40;;;13.60;99.90;;;;;;4999091;28;20501;-49
2023/09/17 03:02:22;;;;;;;25.73;22.77;;;13.50;99.90;;;;;;5000712;28;20955;-50
2023/09/17 03:04:51;;;;;;;27.33;22.60;;;13.60;99.90;;;;;;5001576;28;20203;-49
2023/09/17 03:07:18;;;;;;;26.80;23.33;;;13.50;99.90;;;;;;4999957;28;20216;-49
2023/09/17 03:09:44;;;;;;;27.53;23.67;;;13.50;99.90;;;;;;5001742;28;20441;-50
2023/09/17 03:12:11;;;;;;;29.43;23.00;;;13.50;99.90;;;;;;5003102;28;20457;-49
2023/09/17 03:14:36;;;;;;;29.13;23.90;;;13.50;99.90;;;;;;4999201;28;20524;-49
2023/09/17 03:17:05;;;;;;;25.17;22.57;;;13.60;99.90;;;;;;5003002;28;20556;-50
2023/09/17 03:19:30;;;;;;;28.70;22.07;;;13.50;99.90;;;;;;4998634;28;20200;-48
2023/09/17 03:21:56;;;;;;;26.97;24.07;;;13.50;99.90;;;;;;4996557;28;20494;-49
2023/09/17 03:24:21;;;;;;;29.43;23.93;;;13.50;99.90;;;;;;5004949;28;20191;-49
2023/09/17 03:26:47;;;;;;;30.70;24.23;;;13.50;99.90;;;;;;5000954;28;20188;-49
2023/09/17 03:29:12;;;;;;;32.93;25.97;;;13.50;99.90;;;;;;4999725;28;20597;-49
2023/09/17 03:31:38;;;;;;;27.90;24.90;;;13.50;99.90;;;;;;4998123;28;20575;-50
2023/09/17 03:34:03;;;;;;;29.27;25.20;;;13.50;99.90;;;;;;5002471;28;20696;-50
2023/09/17 03:36:29;;;;;;;31.60;25.20;;;13.50;99.90;;;;;;5000168;28;20212;-49
2023/09/17 03:38:55;;;;;;;30.00;25.90;;;13.50;99.90;;;;;;5000298;28;20236;-49
2023/09/17 03:41:20;;;;;;;31.47;25.13;;;13.50;99.90;;;;;;4999328;28;20229;-50
2023/09/17 03:43:46;;;;;;;29.50;25.13;;;13.50;99.90;;;;;;5007927;28;20229;-49
2023/09/17 03:46:12;;;;;;;28.53;24.97;;;13.50;99.90;;;;;;4999544;28;20206;-50
2023/09/17 03:48:39;;;;;;;33.10;25.93;;;13.40;99.90;;;;;;4999094;28;20190;-48
2023/09/17 03:51:06;;;;;;;28.30;23.70;;;13.40;99.90;;;;;;5001331;28;20442;-49
2023/09/17 03:53:32;;;;;;;29.23;24.70;;;13.40;99.90;;;;;;4998675;28;20447;-49
2023/09/17 03:55:57;;;;;;;28.87;25.40;;;13.40;99.90;;;;;;5005715;28;21040;-49
2023/09/17 03:58:23;;;;;;;32.97;27.10;;;13.40;99.90;;;;;;5007033;28;20675;-48
2023/09/17 04:00:49;;;;;;;28.80;25.70;;;13.30;99.90;;;;;;5001501;28;20203;-50
2023/09/17 04:03:18;;;;;;;29.20;24.30;;;13.30;99.90;;;;;;4998193;28;20651;-49
2023/09/17 04:05:48;;;;;;;29.73;24.07;;;13.30;99.90;;;;;;4996835;28;20195;-49
2023/09/17 04:08:15;;;;;;;28.00;24.50;;;13.30;99.90;;;;;;5002207;28;20453;-49
2023/09/17 04:10:40;;;;;;;31.60;26.70;;;13.30;99.90;;;;;;4996698;28;20459;-49
2023/09/17 04:13:06;;;;;;;31.60;25.43;;;13.20;99.90;;;;;;5005046;28;20849;-49
2023/09/17 04:15:32;;;;;;;32.60;24.67;;;13.20;99.90;;;;;;5001995;28;20223;-50
2023/09/17 04:17:58;;;;;;;28.60;25.00;;;13.20;99.90;;;;;;4997447;28;20527;-48
2023/09/17 04:20:23;;;;;;;32.00;26.00;;;13.10;99.90;;;;;;4999303;28;24099;-48
2023/09/17 04:22:50;;;;;;;28.93;25.10;;;13.10;99.90;;;;;;5000023;28;20235;-49
2023/09/17 04:25:18;;;;;;;31.70;26.73;;;13.10;99.90;;;;;;4995858;28;20248;-48
2023/09/17 04:27:44;;;;;;;33.00;26.90;;;13.20;99.90;;;;;;4998117;28;20533;-49
2023/09/17 04:30:16;;;;;;;31.97;25.97;;;13.20;99.90;;;;;;4997840;28;20534;-49
2023/09/17 04:32:43;;;;;;;30.90;25.10;;;13.20;99.90;;;;;;5001486;28;20199;-49
2023/09/17 04:35:11;;;;;;;29.50;24.43;;;13.20;99.90;;;;;;4996830;28;20462;-49
2023/09/17 04:37:39;;;;;;;26.70;23.90;;;13.10;99.90;;;;;;4997364;28;20438;-50
2023/09/17 04:40:14;;;;;;;31.13;24.30;;;13.10;99.90;;;;;;5005253;28;20566;-48
2023/09/17 04:42:43;;;;;;;31.47;25.50;;;13.10;99.90;;;;;;4996297;28;20439;-49
2023/09/17 04:45:09;;;;;;;31.63;27.57;;;13.00;99.90;;;;;;4996459;28;20445;-49
2023/09/17 04:47:35;;;;;;;30.37;25.70;;;13.00;99.90;;;;;;5003354;28;20451;-49
2023/09/17 04:50:08;;;;;;;33.10;26.87;;;13.00;99.90;;;;;;4996190;28;20889;-48
2023/09/17 04:52:35;;;;;;;30.07;26.77;;;13.00;99.90;;;;;;4999825;28;20435;-48
2023/09/17 04:55:01;;;;;;;31.40;26.53;;;13.00;99.90;;;;;;5000191;28;20978;-49
2023/09/17 04:57:26;;;;;;;34.73;27.70;;;12.90;99.90;;;;;;5002238;28;20465;-49
2023/09/17 04:59:52;;;;;;;33.20;27.70;;;12.90;99.90;;;;;;5008340;28;20830;-50
2023/09/17 05:02:17;;;;;;;36.23;29.80;;;12.90;99.90;;;;;;5002081;28;20210;-49
2023/09/17 05:04:44;;;;;;;30.97;26.60;;;12.90;99.90;;;;;;5004155;28;20186;-49
2023/09/17 05:07:10;;;;;;;32.47;28.27;;;13.00;99.90;;;;;;5000819;28;20191;-49
2023/09/17 05:09:37;;;;;;;31.67;26.37;;;13.00;99.90;;;;;;5005969;28;20446;-50
2023/09/17 05:12:03;;;;;;;28.30;24.97;;;13.00;99.90;;;;;;5006315;28;20191;-48
2023/09/17 05:14:29;;;;;;;30.00;26.10;;;13.00;99.90;;;;;;5001378;28;20447;-48
2023/09/17 05:16:54;;;;;;;30.00;25.87;;;13.00;99.90;;;;;;4999822;28;20483;-49
2023/09/17 05:19:20;;;;;;;33.03;25.37;;;13.00;99.90;;;;;;5002703;28;20236;-49
2023/09/17 05:21:45;;;;;;;29.13;25.10;;;13.00;99.90;;;;;;5003608;28;20205;-48
2023/09/17 05:24:11;;;;;;;28.20;24.50;;;13.00;99.90;;;;;;5003079;28;20787;-50
2023/09/17 05:26:36;;;;;;;31.50;27.77;;;13.00;99.90;;;;;;5003060;28;20267;-48
2023/09/17 05:29:02;;;;;;;31.30;27.90;;;13.10;99.90;;;;;;4998588;28;20197;-49
2023/09/17 05:31:27;;;;;;;34.77;28.70;;;13.10;99.90;;;;;;5000891;28;20175;-49
2023/09/17 05:33:53;;;;;;;38.03;30.43;;;13.10;99.90;;;;;;5001983;28;20249;-49
2023/09/17 05:36:19;;;;;;;35.17;30.20;;;13.20;99.90;;;;;;5001147;28;20564;-48
2023/09/17 05:38:44;;;;;;;31.33;27.13;;;13.20;99.90;;;;;;5004528;28;20321;-49
2023/09/17 05:41:12;;;;;;;32.20;26.60;;;13.30;99.90;;;;;;5002239;28;20193;-49
2023/09/17 05:43:38;;;;;;;30.93;26.27;;;13.30;99.90;;;;;;4999039;28;20696;-49
2023/09/17 05:46:04;;;;;;;28.97;25.00;;;13.40;99.90;;;;;;4999251;28;20526;-48
2023/09/17 05:48:30;;;;;;;33.40;27.37;;;13.50;99.90;;;;;;5001096;28;20453;-49
2023/09/17 05:50:55;;;;;;;28.57;24.97;;;13.60;99.90;;;;;;4998459;28;20438;-50
2023/09/17 05:53:21;;;;;;;30.37;24.93;;;13.60;99.90;;;;;;4998543;28;20211;-50
2023/09/17 05:55:46;;;;;;;28.10;24.77;;;13.60;99.90;;;;;;5010547;28;20675;-49
2023/09/17 05:58:12;;;;;;;29.00;25.27;;;13.70;99.90;;;;;;5008520;28;20674;-49
2023/09/17 06:00:38;;;;;;;29.13;25.10;;;13.80;99.90;;;;;;5003206;28;20552;-49
2023/09/17 06:03:04;;;;;;;27.53;24.53;;;13.90;99.90;;;;;;5006280;28;20531;-49
2023/09/17 06:05:29;;;;;;;27.20;24.30;;;14.00;99.90;;;;;;4998113;28;20199;-50
2023/09/17 06:07:55;;;;;;;27.10;24.17;;;14.00;99.90;;;;;;5002366;28;20620;-50
2023/09/17 06:10:21;;;;;;;27.00;24.20;;;14.20;99.90;;;;;;5001777;28;20183;-49
2023/09/17 06:12:47;;;;;;;27.30;23.83;;;14.20;99.90;;;;;;5009962;28;20180;-50
2023/09/17 06:15:12;;;;;;;24.77;22.20;;;14.30;99.90;;;;;;5001760;28;20585;-49
2023/09/17 06:17:38;;;;;;;28.03;23.60;;;14.50;99.90;;;;;;5002727;28;20663;-50
2023/09/17 06:20:05;;;;;;;24.97;22.30;;;14.60;99.90;;;;;;5001738;28;20189;-49
2023/09/17 06:22:30;;;;;;;26.47;23.77;;;14.70;99.90;;;;;;5004451;28;20970;-50
2023/09/17 06:24:57;;;;;;;27.03;23.70;;;14.80;99.90;;;;;;5003593;28;20431;-50
2023/09/17 06:27:23;;;;;;;26.63;23.73;;;14.90;99.90;;;;;;5003863;28;20684;-50
2023/09/17 06:29:48;;;;;;;25.83;23.03;;;15.10;99.90;;;;;;5001450;28;20565;-49
2023/09/17 06:32:14;;;;;;;27.13;23.40;;;15.30;99.90;;;;;;5001219;28;20188;-50
2023/09/17 06:34:40;;;;;;;26.57;23.73;;;15.40;99.90;;;;;;5000938;28;20191;-49
2023/09/17 06:37:06;;;;;;;25.67;22.87;;;15.60;99.90;;;;;;4997418;28;20665;-50
2023/09/17 06:39:32;;;;;;;26.47;23.60;;;15.70;99.90;;;;;;5002799;28;20456;-50
2023/09/17 06:41:57;;;;;;;27.50;23.40;;;15.90;99.90;;;;;;5000940;28;20435;-49
2023/09/17 06:44:23;;;;;;;24.73;22.13;;;16.00;99.90;;;;;;5002491;28;20190;-49
2023/09/17 06:46:49;;;;;;;26.43;23.40;;;16.20;99.90;;;;;;5003739;28;20181;-50
2023/09/17 06:49:15;;;;;;;25.77;22.80;;;16.30;99.90;;;;;;5003859;28;20230;-49
2023/09/17 06:51:41;;;;;;;25.13;22.43;;;16.40;99.90;;;;;;5003861;28;20446;-50
2023/09/17 06:54:06;;;;;;;24.83;21.77;;;16.50;99.90;;;;;;5002106;28;20276;-53
2023/09/17 06:56:32;;;;;;;25.83;21.70;;;16.50;99.90;;;;;;5003784;28;20234;-49
2023/09/17 06:58:58;;;;;;;28.13;23.70;;;16.70;99.90;;;;;;5003931;28;20176;-50
2023/09/17 07:01:24;;;;;;;27.50;24.27;;;16.80;99.90;;;;;;5001325;28;20208;-50
2023/09/17 07:03:49;;;;;;;24.47;21.47;;;16.90;99.90;;;;;;4998296;28;20791;-49
2023/09/17 07:06:16;;;;;;;25.20;20.53;;;17.10;99.90;;;;;;4997171;28;20726;-50
2023/09/17 07:08:41;;;;;;;23.30;20.80;;;17.20;99.90;;;;;;5003592;28;20751;-50
2023/09/17 07:11:07;;;;;;;26.23;20.27;;;17.40;99.90;;;;;;5004632;28;20436;-51
2023/09/17 07:13:32;;;;;;;24.90;21.97;;;17.70;99.90;;;;;;4996886;28;20645;-52
2023/09/17 07:15:58;;;;;;;21.60;19.40;;;18.30;99.90;;;;;;5002612;28;20305;-50
2023/09/17 07:18:26;;;;;;;17.77;16.07;;;18.80;99.90;;;;;;4997750;28;20619;-51
2023/09/17 07:20:51;;;;;;;18.73;16.90;;;19.40;1.00;;;;;;5003135;28;20177;-51
2023/09/17 07:23:17;;;;;;;17.60;15.70;;;20.10;99.90;;;;;;4999323;28;20989;-51
2023/09/17 07:25:44;;;;;;;17.67;15.07;;;20.50;1.00;;;;;;5002108;28;20192;-50
2023/09/17 07:28:10;;;;;;;17.43;15.40;;;20.90;99.90;;;;;;5000504;28;20185;-51
2023/09/17 07:30:36;;;;;;;19.93;15.37;;;20.90;99.90;;;;;;5005209;28;20489;-51
2023/09/17 07:33:04;;;;;;;15.17;13.67;;;20.90;88.40;;;;;;5000599;28;20669;-50
2023/09/17 07:35:33;;;;;;;16.07;14.37;;;20.80;18.10;;;;;;4999500;28;20568;-51
2023/09/17 07:37:59;;;;;;;15.90;13.17;;;20.80;1.00;;;;;;4998643;28;20442;-51
2023/09/17 07:40:25;;;;;;;17.33;13.50;;;20.80;1.00;;;;;;5007020;28;20436;-51
2023/09/17 07:42:50;;;;;;;13.20;11.80;;;21.00;99.90;;;;;;5002570;28;20440;-52
2023/09/17 07:45:16;;;;;;;15.30;12.17;;;21.30;1.10;;;;;;5001032;28;20224;-50
2023/09/17 07:47:42;;;;;;;16.30;11.30;;;21.60;1.00;;;;;;4998216;28;20196;-50
2023/09/17 07:50:07;;;;;;;13.37;11.97;;;21.60;1.00;;;;;;5005153;28;20304;-50
2023/09/17 07:52:33;;;;;;;14.47;11.13;;;21.40;1.00;;;;;;4997326;28;20192;-50
2023/09/17 07:54:58;;;;;;;13.17;10.87;;;21.30;1.00;;;;;;4998168;28;20266;-50
2023/09/17 07:57:24;;;;;;;12.00;10.80;;;21.30;1.00;;;;;;4999490;28;20405;-50
2023/09/17 07:59:51;;;;;;;11.80;10.10;;;21.40;1.00;;;;;;4994768;28;20246;-51
2023/09/17 08:02:17;;;;;;;15.90;11.07;;;21.40;1.00;;;;;;4999082;28;20195;-52
2023/09/17 08:04:42;;;;;;;12.10;10.80;;;21.40;1.00;;;;;;4998382;28;20434;-51
2023/09/17 08:07:08;;;;;;;13.10;11.20;;;21.20;1.00;;;;;;5001924;28;20187;-51
2023/09/17 08:09:33;;;;;;;12.27;10.20;;;21.10;1.00;;;;;;5001948;28;20267;-52
2023/09/17 08:11:59;;;;;;;12.97;11.67;;;20.90;1.00;;;;;;5001268;28;20237;-51
2023/09/17 08:14:25;;;;;;;11.03;9.90;;;20.80;1.00;;;;;;4999740;28;20196;-52
2023/09/17 08:16:51;;;;;;;11.90;10.50;;;20.70;1.00;;;;;;4996871;28;20262;-50
2023/09/17 08:19:17;;;;;;;11.17;10.07;;;20.70;1.00;;;;;;4999143;28;20811;-51
2023/09/17 08:21:43;;;;;;;13.27;9.60;;;20.70;1.00;;;;;;4999142;28;20439;-51
2023/09/17 08:24:10;;;;;;;11.03;9.80;;;20.70;1.00;;;;;;4998876;28;20235;-52
2023/09/17 08:26:35;;;;;;;17.23;10.57;;;20.80;1.00;;;;;;4995866;28;20219;-52
2023/09/17 08:29:01;;;;;;;14.17;9.90;;;20.90;1.00;;;;;;4996813;28;20439;-52
2023/09/17 08:31:28;;;;;;;10.97;9.87;;;21.10;1.00;;;;;;4998898;28;20199;-52
2023/09/17 08:33:54;;;;;;;46.50;34.47;;;21.20;1.00;;;;;;5005161;28;20196;-50
2023/09/17 08:36:21;;;;;;;13.10;11.70;;;21.50;1.00;;;;;;5005010;28;20467;-52
2023/09/17 08:38:49;;;;;;;9.93;8.87;;;21.70;1.00;;;;;;5006160;28;20465;-50
2023/09/17 08:41:17;;;;;;;10.10;9.00;;;21.90;1.00;;;;;;5007376;28;20443;-52
2023/09/17 08:43:45;;;;;;;9.60;7.97;;;21.90;1.00;;;;;;5000910;28;20442;-52
2023/09/17 08:46:11;;;;;;;8.73;7.83;;;21.90;1.00;;;;;;5003432;28;20520;-52
2023/09/17 08:48:37;;;;;;;11.00;9.07;;;22.00;1.00;;;;;;5006006;28;20446;-52
2023/09/17 08:51:04;;;;;;;9.83;8.80;;;22.10;1.00;;;;;;5002229;28;20435;-52
2023/09/17 08:53:36;;;;;;;8.83;7.90;;;22.10;1.00;;;;;;4999907;28;20656;-52
2023/09/17 08:56:03;;;;;;;9.83;7.90;;;22.10;1.00;;;;;;5001965;28;20521;-52
2023/09/17 08:58:36;;;;;;;8.30;7.50;;;22.10;1.00;;;;;;5008853;28;20453;-48
2023/09/17 09:01:04;;;;;;;9.37;8.30;;;22.10;1.00;;;;;;5005060;28;20502;-49
2023/09/17 09:03:33;;;;;;;9.40;7.70;;;22.00;1.00;;;;;;5000357;28;20439;-49
2023/09/17 09:06:00;;;;;;;10.10;9.10;;;22.00;1.00;;;;;;5005217;28;20518;-49
2023/09/17 09:08:27;;;;;;;9.83;8.57;;;22.10;1.00;;;;;;5003469;28;20436;-50
2023/09/17 09:10:53;;;;;;;13.93;8.67;;;22.20;1.00;;;;;;5002376;28;20443;-50
2023/09/17 09:13:20;;;;;;;9.67;8.27;;;22.30;1.00;;;;;;5002546;28;20447;-49
2023/09/17 09:15:47;;;;;;;8.87;8.00;;;22.40;1.00;;;;;;5001685;28;20478;-49
2023/09/17 09:18:13;;;;;;;8.50;7.70;;;22.40;1.00;;;;;;5000490;28;20436;-50
2023/09/17 09:20:40;;;;;;;14.87;8.50;;;22.50;1.00;;;;;;5002484;28;20442;-50
2023/09/17 09:23:06;;;;;;;10.27;7.83;;;22.60;1.00;;;;;;5003625;28;20319;-48
2023/09/17 09:25:32;;;;;;;7.80;7.10;;;22.70;1.00;;;;;;5001113;28;20538;-50
2023/09/17 09:28:01;;;;;;;10.63;8.10;;;22.80;1.00;;;;;;5003902;28;20192;-50
2023/09/17 09:30:28;;;;;;;8.03;7.23;;;22.80;1.00;;;;;;4999098;28;20723;-51
2023/09/17 09:32:54;;;;;;;8.93;7.63;;;22.90;1.00;;;;;;5002240;28;21194;-51
2023/09/17 09:35:19;;;;;;;7.83;7.13;;;22.80;1.00;;;;;;5001034;28;20514;-51
2023/09/17 09:37:45;;;;;;;9.20;8.30;;;22.80;1.00;;;;;;5004334;28;20491;-51
2023/09/17 09:40:13;;;;;;;9.00;8.10;;;22.90;1.00;;;;;;5003288;28;20638;-49
2023/09/17 09:42:39;;;;;;;8.20;7.40;;;22.80;1.00;;;;;;5005692;28;20432;-51
2023/09/17 09:45:11;;;;;;;8.90;7.67;;;22.80;1.00;;;;;;5001290;28;20954;-49
2023/09/17 09:47:37;;;;;;;8.60;7.23;;;22.70;1.00;;;;;;5002907;28;20177;-51
2023/09/17 09:50:03;;;;;;;10.87;8.07;;;22.60;1.00;;;;;;5000913;28;20558;-52
2023/09/17 09:52:29;;;;;;;8.63;7.73;;;22.50;1.00;;;;;;5005474;28;20523;-51
2023/09/17 09:54:54;;;;;;;8.40;7.07;;;22.50;1.00;;;;;;5001638;28;20219;-50
2023/09/17 09:57:20;;;;;;;8.80;7.87;;;22.50;1.00;;;;;;5004850;28;20220;-49
2023/09/17 09:59:47;;;;;;;7.33;6.63;;;22.50;1.00;;;;;;5004497;28;20192;-49
2023/09/17 10:02:20;;;;;;;10.60;7.20;;;22.50;1.00;;;;;;5002379;28;20191;-50
2023/09/17 10:04:46;;;;;;;7.63;6.93;;;22.50;1.00;;;;;;5001106;28;20444;-49
2023/09/17 10:07:14;;;;;;;7.73;7.03;;;22.50;1.00;;;;;;4999530;28;20446;-51
2023/09/17 10:09:41;;;;;;;7.57;6.87;;;22.50;1.00;;;;;;5001083;28;20928;-49
2023/09/17 10:12:07;;;;;;;7.27;6.60;;;22.60;1.00;;;;;;5001968;28;20459;-49
2023/09/17 10:14:37;;;;;;;11.60;7.30;;;22.80;1.00;;;;;;4998429;28;20462;-49
2023/09/17 10:17:05;;;;;;;7.70;6.87;;;23.00;1.00;;;;;;5000410;28;20220;-51
2023/09/17 10:19:33;;;;;;;8.00;7.20;;;23.20;1.00;;;;;;5003057;28;20901;-50
2023/09/17 10:22:00;;;;;;;7.87;7.17;;;23.40;1.00;;;;;;5000461;28;20431;-50
2023/09/17 10:24:27;;;;;;;8.90;7.00;;;23.70;1.00;;;;;;5000297;28;20439;-50
2023/09/17 10:26:54;;;;;;;7.37;6.70;;;24.10;1.00;;;;;;4998039;28;20920;-49
2023/09/17 10:29:22;;;;;;;8.67;6.77;;;24.60;1.00;;;;;;5000634;28;20448;-51
2023/09/17 10:31:48;;;;;;;7.50;6.80;;;25.10;1.00;;;;;;4999095;28;20436;-49
2023/09/17 10:34:15;;;;;;;8.07;6.50;;;25.70;1.00;;;;;;4999942;28;20516;-51
2023/09/17 10:36:42;;;;;;;11.20;6.30;;;26.50;1.00;;;;;;4998387;28;20840;-49
2023/09/17 10:39:10;;;;;;;7.57;6.37;;;27.10;1.00;;;;;;5000759;28;20541;-49
2023/09/17 10:41:39;;;;;;;7.10;6.23;;;27.30;1.00;;;;;;4997388;28;20439;-49
2023/09/17 10:44:07;;;;;;;9.13;6.50;;;27.10;1.00;;;;;;5006382;28;20439;-50
2023/09/17 10:46:36;;;;;;;6.73;6.10;;;27.30;1.00;;;;;;4999357;28;21031;-50
2023/09/17 10:49:04;;;;;;;6.90;6.17;;;27.20;1.00;;;;;;4997294;28;21672;-49
2023/09/17 10:51:30;;;;;;;6.70;6.00;;;27.00;1.00;;;;;;5002985;28;20439;-50
2023/09/17 10:53:56;;;;;;;7.07;6.27;;;27.10;1.00;;;;;;4997649;28;20446;-49
2023/09/17 10:56:22;;;;;;;9.13;6.13;;;27.70;1.00;;;;;;4997085;28;20478;-49
2023/09/17 10:58:52;;;;;;;6.73;6.13;;;28.30;1.00;;;;;;4997053;28;20181;-48
2023/09/17 11:01:22;;;;;;;6.90;6.30;;;28.40;1.00;;;;;;5000354;28;20189;-49
2023/09/17 11:03:55;;;;;;;6.10;5.57;;;28.20;1.00;;;;;;5001471;28;20459;-49
2023/09/17 11:06:25;;;;;;;6.20;5.60;;;28.00;1.00;;;;;;4999479;28;20442;-50
2023/09/17 11:08:54;;;;;;;6.23;5.50;;;27.70;1.00;;;;;;4996868;28;20440;-49
2023/09/17 11:11:22;;;;;;;6.07;5.50;;;27.80;1.00;;;;;;5002156;28;20633;-49
2023/09/17 11:13:48;;;;;;;7.20;5.90;;;28.00;1.00;;;;;;5001548;28;20447;-49
2023/09/17 11:16:23;;;;;;;6.27;5.67;;;28.40;1.00;;;;;;5000038;28;20486;-48
2023/09/17 11:19:11;;;;;;;6.77;5.30;;;29.00;1.00;;;;;;5003795;28;20445;-49
2023/09/17 11:21:39;;;;;;;6.40;5.80;;;29.60;1.00;;;;;;5000860;28;20518;-49
2023/09/17 11:24:07;;;;;;;5.50;5.00;;;29.90;99.90;;;;;;5001735;28;20941;-50
2023/09/17 11:26:37;;;;;;;7.70;5.17;;;30.10;99.90;;;;;;5000876;28;20440;-50
2023/09/17 11:29:05;;;;;;;5.23;4.73;;;30.30;99.90;;;;;;4996142;28;20986;-51
2023/09/17 11:31:34;;;;;;;5.30;4.90;;;30.80;99.90;;;;;;5000808;28;20518;-50
2023/09/17 11:34:03;;;;;;;6.97;5.50;;;31.00;99.90;;;;;;5006375;28;20427;-49
2023/09/17 11:36:30;;;;;;;7.23;6.00;;;31.00;99.90;;;;;;5013772;28;20474;-50
2023/09/17 11:38:56;;;;;;;5.40;4.90;;;30.70;99.90;;;;;;5016847;28;20432;-49
2023/09/17 11:41:28;;;;;;;5.47;4.97;;;30.80;99.90;;;;;;5011684;28;20444;-50
2023/09/17 11:43:53;;;;;;;7.33;5.10;;;31.10;99.90;;;;;;5012943;28;20209;-49
2023/09/17 11:46:20;;;;;;;6.60;5.03;;;31.60;99.90;;;;;;5012035;28;20525;-49
2023/09/17 11:48:45;;;;;;;7.93;4.97;;;31.80;99.90;;;;;;5009836;28;20595;-49
2023/09/17 11:51:28;;;;;;;10.63;7.23;;;32.00;99.90;;;;;;5013643;28;20434;-50
2023/09/17 11:54:08;;;;;;;8.90;5.80;;;32.30;99.90;;;;;;5014569;28;20184;-49
2023/09/17 11:56:38;;;;;;;7.50;5.33;;;31.40;99.90;;;;;;5012735;28;20483;-50
2023/09/17 11:59:05;;;;;;;7.43;5.67;;;30.20;99.90;;;;;;5013869;28;20967;-49
2023/09/17 12:01:36;;;;;;;7.53;5.77;;;29.10;99.90;;;;;;5012828;28;20518;-50
2023/09/17 12:04:07;;;;;;;7.47;5.40;;;28.40;99.90;;;;;;5013776;28;20935;-49
2023/09/17 12:06:37;;;;;;;6.73;5.30;;;27.80;99.90;;;;;;5008049;28;20434;-50
2023/09/17 12:09:10;;;;;;;6.57;5.97;;;27.50;99.90;;;;;;5016267;28;20538;-49
2023/09/17 12:11:36;;;;;;;5.97;5.47;;;27.30;99.90;;;;;;5020616;28;20427;-50
2023/09/17 12:14:06;;;;;;;5.60;5.10;;;27.00;99.90;;;;;;5013836;28;20801;-49
2023/09/17 12:16:32;;;;;;;12.13;6.27;;;26.80;99.90;;;;;;5019088;28;20212;-50
2023/09/17 12:18:58;;;;;;;6.53;5.93;;;26.80;99.90;;;;;;5018443;28;20427;-50
2023/09/17 12:21:25;;;;;;;6.50;5.93;;;26.80;99.90;;;;;;5017056;28;20216;-49
2023/09/17 12:26:30;;;;;;;6.10;5.30;;;26.70;99.90;;;;;;5021493;28;20452;-49
2023/09/17 12:28:56;;;;;;;9.40;6.60;;;26.70;99.90;;;;;;5007138;28;20459;-49
2023/09/17 12:31:21;;;;;;;8.33;5.73;;;26.80;99.90;;;;;;5012082;28;20478;-48
2023/09/17 12:33:47;;;;;;;6.00;5.50;;;26.90;99.90;;;;;;5010689;28;20188;-48
2023/09/17 12:36:12;;;;;;;8.90;6.00;;;27.00;99.90;;;;;;5004790;28;20330;-49